sensor_id;sensor_type;location;lat;lon;timestamp;temperature;humidity
26342;DHT22;14054;50.108;8.640;2022-08-20T00:01:32;22.40;99.90
26342;DHT22;14054;50.108;8.640;2022-08-20T00:03:58;22.40;99.90
26342;DHT22;14054;50.108;8.640;2022-08-20T00:06:23;22.30;99.90
26342;DHT22;14054;50.108;8.640;2022-08-20T00:08:49;22.30;99.90
26342;DHT22;14054;50.108;8.640;2022-08-20T00:11:22;22.30;99.90
26342;DHT22;14054;50.108;8.640;2022-08-20T00:13:53;22.30;99.90
26342;DHT22;14054;50.108;8.640;2022-08-20T00:16:20;22.40;99.90
26342;DHT22;14054;50.108;8.640;2022-08-20T00:18:46;22.30;99.90
26342;DHT22;14054;50.108;8.640;2022-08-20T00:21:13;22.40;99.90
26342;DHT22;14054;50.108;8.640;2022-08-20T00:23:41;22.40;99.90
26342;DHT22;14054;50.108;8.640;2022-08-20T00:26:07;22.50;99.90
26342;DHT22;14054;50.108;8.640;2022-08-20T00:28:34;22.40;99.90
26342;DHT22;14054;50.108;8.640;2022-08-20T00:31:07;22.50;99.90
26342;DHT22;14054;50.108;8.640;2022-08-20T00:33:33;22.50;99.90
26342;DHT22;14054;50.108;8.640;2022-08-20T00:35:59;22.50;99.90
26342;DHT22;14054;50.108;8.640;2022-08-20T00:38:34;22.50;99.90
26342;DHT22;14054;50.108;8.640;2022-08-20T00:41:00;22.40;99.90
26342;DHT22;14054;50.108;8.640;2022-08-20T00:43:38;22.40;99.90
26342;DHT22;14054;50.108;8.640;2022-08-20T00:46:15;22.30;99.90
26342;DHT22;14054;50.108;8.640;2022-08-20T00:48:43;22.30;99.90
26342;DHT22;14054;50.108;8.640;2022-08-20T00:51:33;22.40;99.90
26342;DHT22;14054;50.108;8.640;2022-08-20T00:54:10;22.40;99.90
26342;DHT22;14054;50.108;8.640;2022-08-20T00:56:37;22.40;99.90
26342;DHT22;14054;50.108;8.640;2022-08-20T00:59:07;22.40;99.90
26342;DHT22;14054;50.108;8.640;2022-08-20T01:01:37;22.50;99.90
26342;DHT22;14054;50.108;8.640;2022-08-20T01:04:03;22.40;99.90
26342;DHT22;14054;50.108;8.640;2022-08-20T01:06:29;22.30;99.90
26342;DHT22;14054;50.108;8.640;2022-08-20T01:08:55;22.40;99.90
26342;DHT22;14054;50.108;8.640;2022-08-20T01:11:22;22.40;99.90
26342;DHT22;14054;50.108;8.640;2022-08-20T01:13:56;22.40;99.90
26342;DHT22;14054;50.108;8.640;2022-08-20T01:16:26;22.40;99.90
26342;DHT22;14054;50.108;8.640;2022-08-20T01:18:54;22.30;99.90
26342;DHT22;14054;50.108;8.640;2022-08-20T01:21:24;22.30;99.90
26342;DHT22;14054;50.108;8.640;2022-08-20T01:24:06;22.30;99.90
26342;DHT22;14054;50.108;8.640;2022-08-20T01:26:38;22.30;99.90
26342;DHT22;14054;50.108;8.640;2022-08-20T01:29:11;22.30;99.90
26342;DHT22;14054;50.108;8.640;2022-08-20T01:31:39;22.30;99.90
26342;DHT22;14054;50.108;8.640;2022-08-20T01:34:09;22.20;99.90
26342;DHT22;14054;50.108;8.640;2022-08-20T01:36:39;22.30;99.90
26342;DHT22;14054;50.108;8.640;2022-08-20T01:39:08;22.20;99.90
26342;DHT22;14054;50.108;8.640;2022-08-20T01:44:25;22.20;99.90
26342;DHT22;14054;50.108;8.640;2022-08-20T01:46:53;22.10;99.90
26342;DHT22;14054;50.108;8.640;2022-08-20T01:49:28;22.10;99.90
26342;DHT22;14054;50.108;8.640;2022-08-20T01:51:56;22.10;99.90
26342;DHT22;14054;50.108;8.640;2022-08-20T01:54:24;22.10;99.90
26342;DHT22;14054;50.108;8.640;2022-08-20T01:57:14;22.00;99.90
26342;DHT22;14054;50.108;8.640;2022-08-20T01:59:41;22.00;99.90
26342;DHT22;14054;50.108;8.640;2022-08-20T02:02:08;22.00;99.90
26342;DHT22;14054;50.108;8.640;2022-08-20T02:04:34;22.00;99.90
26342;DHT22;14054;50.108;8.640;2022-08-20T02:07:03;22.00;99.90
26342;DHT22;14054;50.108;8.640;2022-08-20T02:09:32;22.00;99.90
26342;DHT22;14054;50.108;8.640;2022-08-20T02:11:58;22.00;99.90
26342;DHT22;14054;50.108;8.640;2022-08-20T02:14:24;21.90;99.90
26342;DHT22;14054;50.108;8.640;2022-08-20T02:16:51;21.90;99.90
26342;DHT22;14054;50.108;8.640;2022-08-20T02:19:27;21.90;99.90
26342;DHT22;14054;50.108;8.640;2022-08-20T02:21:56;21.90;99.90
26342;DHT22;14054;50.108;8.640;2022-08-20T02:24:22;21.90;99.90
26342;DHT22;14054;50.108;8.640;2022-08-20T02:26:49;21.90;99.90
26342;DHT22;14054;50.108;8.640;2022-08-20T02:29:15;21.80;99.90
26342;DHT22;14054;50.108;8.640;2022-08-20T02:31:42;21.80;99.90
26342;DHT22;14054;50.108;8.640;2022-08-20T02:34:08;21.90;99.90
26342;DHT22;14054;50.108;8.640;2022-08-20T02:36:35;21.90;99.90
26342;DHT22;14054;50.108;8.640;2022-08-20T02:39:04;21.90;99.90
26342;DHT22;14054;50.108;8.640;2022-08-20T02:41:31;21.90;99.90
26342;DHT22;14054;50.108;8.640;2022-08-20T02:43:56;21.90;99.90
26342;DHT22;14054;50.108;8.640;2022-08-20T02:46:22;21.80;99.90
26342;DHT22;14054;50.108;8.640;2022-08-20T02:48:48;21.80;99.90
26342;DHT22;14054;50.108;8.640;2022-08-20T02:51:13;21.80;99.90
26342;DHT22;14054;50.108;8.640;2022-08-20T02:53:40;21.80;99.90
26342;DHT22;14054;50.108;8.640;2022-08-20T02:56:08;21.80;99.90
26342;DHT22;14054;50.108;8.640;2022-08-20T02:58:35;21.80;99.90
26342;DHT22;14054;50.108;8.640;2022-08-20T03:01:02;21.80;99.90
26342;DHT22;14054;50.108;8.640;2022-08-20T03:03:28;21.70;99.90
26342;DHT22;14054;50.108;8.640;2022-08-20T03:05:56;21.70;99.90
26342;DHT22;14054;50.108;8.640;2022-08-20T03:08:22;21.70;99.90
26342;DHT22;14054;50.108;8.640;2022-08-20T03:10:49;21.80;99.90
26342;DHT22;14054;50.108;8.640;2022-08-20T03:13:16;21.80;99.90
26342;DHT22;14054;50.108;8.640;2022-08-20T03:15:51;21.80;99.90
26342;DHT22;14054;50.108;8.640;2022-08-20T03:18:18;21.80;99.90
26342;DHT22;14054;50.108;8.640;2022-08-20T03:20:45;21.80;99.90
26342;DHT22;14054;50.108;8.640;2022-08-20T03:23:11;21.90;99.90
26342;DHT22;14054;50.108;8.640;2022-08-20T03:25:36;21.90;99.90
26342;DHT22;14054;50.108;8.640;2022-08-20T03:28:03;21.80;99.90
26342;DHT22;14054;50.108;8.640;2022-08-20T03:30:29;21.70;99.90
26342;DHT22;14054;50.108;8.640;2022-08-20T03:32:55;21.70;99.90
26342;DHT22;14054;50.108;8.640;2022-08-20T03:35:23;21.70;99.90
26342;DHT22;14054;50.108;8.640;2022-08-20T03:37:49;21.80;99.90
26342;DHT22;14054;50.108;8.640;2022-08-20T03:40:18;21.70;99.90
26342;DHT22;14054;50.108;8.640;2022-08-20T03:42:44;21.80;99.90
26342;DHT22;14054;50.108;8.640;2022-08-20T03:45:10;21.70;99.90
26342;DHT22;14054;50.108;8.640;2022-08-20T03:47:37;21.60;99.90
26342;DHT22;14054;50.108;8.640;2022-08-20T03:50:05;21.60;99.90
26342;DHT22;14054;50.108;8.640;2022-08-20T03:52:31;21.60;99.90
26342;DHT22;14054;50.108;8.640;2022-08-20T03:54:57;21.50;99.90
26342;DHT22;14054;50.108;8.640;2022-08-20T03:57:22;21.40;99.90
26342;DHT22;14054;50.108;8.640;2022-08-20T03:59:48;21.50;99.90
26342;DHT22;14054;50.108;8.640;2022-08-20T04:02:16;21.40;99.90
26342;DHT22;14054;50.108;8.640;2022-08-20T04:04:41;21.70;99.90
26342;DHT22;14054;50.108;8.640;2022-08-20T04:07:26;21.40;99.90
26342;DHT22;14054;50.108;8.640;2022-08-20T04:09:53;21.40;99.90
26342;DHT22;14054;50.108;8.640;2022-08-20T04:12:19;21.80;99.90
26342;DHT22;14054;50.108;8.640;2022-08-20T04:14:44;21.60;99.90
26342;DHT22;14054;50.108;8.640;2022-08-20T04:17:11;21.70;99.90
26342;DHT22;14054;50.108;8.640;2022-08-20T04:19:37;21.60;99.90
26342;DHT22;14054;50.108;8.640;2022-08-20T04:22:04;21.70;99.90
26342;DHT22;14054;50.108;8.640;2022-08-20T04:24:31;21.70;99.90
26342;DHT22;14054;50.108;8.640;2022-08-20T04:26:57;21.60;99.90
26342;DHT22;14054;50.108;8.640;2022-08-20T04:29:23;21.60;99.90
26342;DHT22;14054;50.108;8.640;2022-08-20T04:31:51;21.50;99.90
26342;DHT22;14054;50.108;8.640;2022-08-20T04:34:16;21.90;99.90
26342;DHT22;14054;50.108;8.640;2022-08-20T04:36:43;21.90;99.90
26342;DHT22;14054;50.108;8.640;2022-08-20T04:39:11;21.80;99.90
26342;DHT22;14054;50.108;8.640;2022-08-20T04:41:36;21.50;99.90
26342;DHT22;14054;50.108;8.640;2022-08-20T04:44:02;21.50;99.90
26342;DHT22;14054;50.108;8.640;2022-08-20T04:46:27;21.70;99.90
26342;DHT22;14054;50.108;8.640;2022-08-20T04:48:54;21.40;99.90
26342;DHT22;14054;50.108;8.640;2022-08-20T04:51:20;21.80;99.90
26342;DHT22;14054;50.108;8.640;2022-08-20T04:53:45;21.40;99.90
26342;DHT22;14054;50.108;8.640;2022-08-20T04:56:11;21.60;99.90
26342;DHT22;14054;50.108;8.640;2022-08-20T04:58:38;21.90;99.90
26342;DHT22;14054;50.108;8.640;2022-08-20T05:01:09;21.50;99.90
26342;DHT22;14054;50.108;8.640;2022-08-20T05:03:38;21.60;99.90
26342;DHT22;14054;50.108;8.640;2022-08-20T05:06:06;21.50;99.90
26342;DHT22;14054;50.108;8.640;2022-08-20T05:08:32;21.90;99.90
26342;DHT22;14054;50.108;8.640;2022-08-20T05:10:58;21.80;99.90
26342;DHT22;14054;50.108;8.640;2022-08-20T05:13:25;21.40;99.90
26342;DHT22;14054;50.108;8.640;2022-08-20T05:15:51;21.80;99.90
26342;DHT22;14054;50.108;8.640;2022-08-20T05:18:21;21.60;99.90
26342;DHT22;14054;50.108;8.640;2022-08-20T05:20:47;21.80;99.90
26342;DHT22;14054;50.108;8.640;2022-08-20T05:23:15;21.70;99.90
26342;DHT22;14054;50.108;8.640;2022-08-20T05:25:42;21.80;99.90
26342;DHT22;14054;50.108;8.640;2022-08-20T05:28:16;22.10;99.90
26342;DHT22;14054;50.108;8.640;2022-08-20T05:30:44;21.90;99.90
26342;DHT22;14054;50.108;8.640;2022-08-20T05:33:11;21.80;99.90
26342;DHT22;14054;50.108;8.640;2022-08-20T05:35:42;21.90;99.90
26342;DHT22;14054;50.108;8.640;2022-08-20T05:38:09;22.30;99.90
26342;DHT22;14054;50.108;8.640;2022-08-20T05:40:39;22.10;99.90
26342;DHT22;14054;50.108;8.640;2022-08-20T05:43:05;22.40;99.90
26342;DHT22;14054;50.108;8.640;2022-08-20T05:45:32;22.30;99.90
26342;DHT22;14054;50.108;8.640;2022-08-20T05:48:23;22.00;99.90
26342;DHT22;14054;50.108;8.640;2022-08-20T05:50:50;22.40;99.90
26342;DHT22;14054;50.108;8.640;2022-08-20T05:53:17;22.40;99.90
26342;DHT22;14054;50.108;8.640;2022-08-20T05:55:43;22.20;99.90
26342;DHT22;14054;50.108;8.640;2022-08-20T05:58:24;22.10;99.90
26342;DHT22;14054;50.108;8.640;2022-08-20T06:00:51;22.40;99.90
26342;DHT22;14054;50.108;8.640;2022-08-20T06:03:17;22.40;99.90
26342;DHT22;14054;50.108;8.640;2022-08-20T06:06:02;22.50;99.90
26342;DHT22;14054;50.108;8.640;2022-08-20T06:08:28;22.20;99.90
26342;DHT22;14054;50.108;8.640;2022-08-20T06:10:54;22.30;99.90
26342;DHT22;14054;50.108;8.640;2022-08-20T06:13:20;22.10;99.90
26342;DHT22;14054;50.108;8.640;2022-08-20T06:15:45;22.00;99.90
26342;DHT22;14054;50.108;8.640;2022-08-20T06:18:10;22.00;99.90
26342;DHT22;14054;50.108;8.640;2022-08-20T06:20:37;21.60;99.90
26342;DHT22;14054;50.108;8.640;2022-08-20T06:23:04;21.90;99.90
26342;DHT22;14054;50.108;8.640;2022-08-20T06:25:30;21.60;99.90
26342;DHT22;14054;50.108;8.640;2022-08-20T06:27:56;21.60;99.90
26342;DHT22;14054;50.108;8.640;2022-08-20T06:30:22;22.00;99.90
26342;DHT22;14054;50.108;8.640;2022-08-20T06:32:47;22.10;99.90
26342;DHT22;14054;50.108;8.640;2022-08-20T06:35:15;21.60;99.90
26342;DHT22;14054;50.108;8.640;2022-08-20T06:37:40;21.80;99.90
26342;DHT22;14054;50.108;8.640;2022-08-20T06:40:14;22.00;99.90
26342;DHT22;14054;50.108;8.640;2022-08-20T06:42:40;21.70;99.90
26342;DHT22;14054;50.108;8.640;2022-08-20T06:45:09;22.20;99.90
26342;DHT22;14054;50.108;8.640;2022-08-20T06:47:41;21.80;99.90
26342;DHT22;14054;50.108;8.640;2022-08-20T06:50:10;21.60;99.90
26342;DHT22;14054;50.108;8.640;2022-08-20T06:52:40;22.20;99.90
26342;DHT22;14054;50.108;8.640;2022-08-20T06:55:08;22.10;99.90
26342;DHT22;14054;50.108;8.640;2022-08-20T06:57:35;22.10;99.90
26342;DHT22;14054;50.108;8.640;2022-08-20T07:00:09;21.70;99.90
26342;DHT22;14054;50.108;8.640;2022-08-20T07:02:35;22.20;99.90
26342;DHT22;14054;50.108;8.640;2022-08-20T07:05:02;21.80;99.90
26342;DHT22;14054;50.108;8.640;2022-08-20T07:07:29;22.10;99.90
26342;DHT22;14054;50.108;8.640;2022-08-20T07:09:59;21.80;99.90
26342;DHT22;14054;50.108;8.640;2022-08-20T07:12:25;22.10;99.90
26342;DHT22;14054;50.108;8.640;2022-08-20T07:14:50;21.70;99.90
26342;DHT22;14054;50.108;8.640;2022-08-20T07:17:16;21.90;99.90
26342;DHT22;14054;50.108;8.640;2022-08-20T07:19:41;22.20;99.90
26342;DHT22;14054;50.108;8.640;2022-08-20T07:22:07;21.90;99.90
26342;DHT22;14054;50.108;8.640;2022-08-20T07:24:33;22.20;99.90
26342;DHT22;14054;50.108;8.640;2022-08-20T07:26:58;22.00;99.90
26342;DHT22;14054;50.108;8.640;2022-08-20T07:29:25;22.20;99.90
26342;DHT22;14054;50.108;8.640;2022-08-20T07:32:10;22.30;99.90
26342;DHT22;14054;50.108;8.640;2022-08-20T07:34:54;22.00;99.90
26342;DHT22;14054;50.108;8.640;2022-08-20T07:37:20;22.10;99.90
26342;DHT22;14054;50.108;8.640;2022-08-20T07:39:48;22.50;99.90
26342;DHT22;14054;50.108;8.640;2022-08-20T07:42:14;22.20;99.90
26342;DHT22;14054;50.108;8.640;2022-08-20T07:44:39;22.20;99.90
26342;DHT22;14054;50.108;8.640;2022-08-20T07:47:05;22.30;99.90
26342;DHT22;14054;50.108;8.640;2022-08-20T07:49:31;22.20;99.90
26342;DHT22;14054;50.108;8.640;2022-08-20T07:51:57;22.40;99.90
26342;DHT22;14054;50.108;8.640;2022-08-20T07:54:22;22.60;99.90
26342;DHT22;14054;50.108;8.640;2022-08-20T07:56:48;22.90;99.90
26342;DHT22;14054;50.108;8.640;2022-08-20T07:59:14;22.80;99.90
26342;DHT22;14054;50.108;8.640;2022-08-20T08:01:39;23.50;99.90
26342;DHT22;14054;50.108;8.640;2022-08-20T08:04:04;23.60;99.90
26342;DHT22;14054;50.108;8.640;2022-08-20T08:06:30;23.70;99.90
26342;DHT22;14054;50.108;8.640;2022-08-20T08:09:13;23.70;99.90
26342;DHT22;14054;50.108;8.640;2022-08-20T08:11:42;24.10;99.90
26342;DHT22;14054;50.108;8.640;2022-08-20T08:14:10;24.30;99.90
26342;DHT22;14054;50.108;8.640;2022-08-20T08:16:36;24.80;99.90
26342;DHT22;14054;50.108;8.640;2022-08-20T08:19:04;25.60;99.90
26342;DHT22;14054;50.108;8.640;2022-08-20T08:21:31;25.10;99.90
26342;DHT22;14054;50.108;8.640;2022-08-20T08:23:57;25.30;99.90
26342;DHT22;14054;50.108;8.640;2022-08-20T08:26:22;25.90;99.90
26342;DHT22;14054;50.108;8.640;2022-08-20T08:28:48;26.10;99.90
26342;DHT22;14054;50.108;8.640;2022-08-20T08:31:14;26.10;99.90
26342;DHT22;14054;50.108;8.640;2022-08-20T08:33:40;25.70;99.90
26342;DHT22;14054;50.108;8.640;2022-08-20T08:36:09;25.20;99.90
26342;DHT22;14054;50.108;8.640;2022-08-20T08:38:37;25.10;99.90
26342;DHT22;14054;50.108;8.640;2022-08-20T08:41:25;24.90;99.90
26342;DHT22;14054;50.108;8.640;2022-08-20T08:43:58;25.40;99.90
26342;DHT22;14054;50.108;8.640;2022-08-20T08:46:31;26.00;99.90
26342;DHT22;14054;50.108;8.640;2022-08-20T08:48:58;26.30;99.90
26342;DHT22;14054;50.108;8.640;2022-08-20T08:51:47;26.60;99.90
26342;DHT22;14054;50.108;8.640;2022-08-20T08:54:17;26.00;99.90
26342;DHT22;14054;50.108;8.640;2022-08-20T08:56:44;24.90;99.90
26342;DHT22;14054;50.108;8.640;2022-08-20T08:59:10;24.90;99.90
26342;DHT22;14054;50.108;8.640;2022-08-20T09:01:46;24.50;99.90
26342;DHT22;14054;50.108;8.640;2022-08-20T09:04:13;24.10;99.90
26342;DHT22;14054;50.108;8.640;2022-08-20T09:06:39;24.20;99.90
26342;DHT22;14054;50.108;8.640;2022-08-20T09:11:48;23.60;99.90
26342;DHT22;14054;50.108;8.640;2022-08-20T09:14:14;23.50;99.90
26342;DHT22;14054;50.108;8.640;2022-08-20T09:16:39;23.40;99.90
26342;DHT22;14054;50.108;8.640;2022-08-20T09:19:04;23.50;99.90
26342;DHT22;14054;50.108;8.640;2022-08-20T09:21:30;23.90;99.90
26342;DHT22;14054;50.108;8.640;2022-08-20T09:23:55;24.00;99.90
26342;DHT22;14054;50.108;8.640;2022-08-20T09:26:21;23.80;99.90
26342;DHT22;14054;50.108;8.640;2022-08-20T09:28:46;23.80;99.90
26342;DHT22;14054;50.108;8.640;2022-08-20T09:31:12;23.80;99.90
26342;DHT22;14054;50.108;8.640;2022-08-20T09:33:37;23.80;99.90
26342;DHT22;14054;50.108;8.640;2022-08-20T09:36:03;24.30;99.90
26342;DHT22;14054;50.108;8.640;2022-08-20T09:38:29;24.50;99.90
26342;DHT22;14054;50.108;8.640;2022-08-20T09:40:54;25.10;99.90
26342;DHT22;14054;50.108;8.640;2022-08-20T09:43:20;25.50;99.90
26342;DHT22;14054;50.108;8.640;2022-08-20T09:45:45;25.60;99.90
26342;DHT22;14054;50.108;8.640;2022-08-20T09:48:11;25.60;99.90
26342;DHT22;14054;50.108;8.640;2022-08-20T09:50:40;25.30;99.90
26342;DHT22;14054;50.108;8.640;2022-08-20T09:53:08;25.70;99.90
26342;DHT22;14054;50.108;8.640;2022-08-20T09:55:40;25.90;99.90
26342;DHT22;14054;50.108;8.640;2022-08-20T10:00:41;26.30;99.90
26342;DHT22;14054;50.108;8.640;2022-08-20T10:03:07;26.20;99.90
26342;DHT22;14054;50.108;8.640;2022-08-20T10:05:32;25.80;99.90
26342;DHT22;14054;50.108;8.640;2022-08-20T10:07:58;26.00;99.90
26342;DHT22;14054;50.108;8.640;2022-08-20T10:10:23;26.80;99.90
26342;DHT22;14054;50.108;8.640;2022-08-20T10:12:49;27.20;99.90
26342;DHT22;14054;50.108;8.640;2022-08-20T10:15:14;27.30;99.90
26342;DHT22;14054;50.108;8.640;2022-08-20T10:17:42;27.50;99.90
26342;DHT22;14054;50.108;8.640;2022-08-20T10:20:09;27.60;99.90
26342;DHT22;14054;50.108;8.640;2022-08-20T10:22:35;27.90;99.80
26342;DHT22;14054;50.108;8.640;2022-08-20T10:25:01;27.20;99.90
26342;DHT22;14054;50.108;8.640;2022-08-20T10:27:27;26.70;99.90
26342;DHT22;14054;50.108;8.640;2022-08-20T10:29:52;27.10;99.90
26342;DHT22;14054;50.108;8.640;2022-08-20T10:32:18;27.90;99.90
26342;DHT22;14054;50.108;8.640;2022-08-20T10:34:44;28.60;99.00
26342;DHT22;14054;50.108;8.640;2022-08-20T10:37:15;28.60;97.90
26342;DHT22;14054;50.108;8.640;2022-08-20T10:39:41;28.00;98.60
26342;DHT22;14054;50.108;8.640;2022-08-20T10:42:07;28.00;98.90
26342;DHT22;14054;50.108;8.640;2022-08-20T10:44:32;27.30;99.90
26342;DHT22;14054;50.108;8.640;2022-08-20T10:46:57;26.70;99.90
26342;DHT22;14054;50.108;8.640;2022-08-20T10:49:36;27.10;99.90
26342;DHT22;14054;50.108;8.640;2022-08-20T10:52:02;27.50;99.30
26342;DHT22;14054;50.108;8.640;2022-08-20T10:54:27;27.90;98.70
26342;DHT22;14054;50.108;8.640;2022-08-20T10:56:53;28.20;97.40
26342;DHT22;14054;50.108;8.640;2022-08-20T11:01:46;29.40;99.90
26342;DHT22;14054;50.108;8.640;2022-08-20T11:04:12;28.70;99.90
26342;DHT22;14054;50.108;8.640;2022-08-20T11:06:37;29.10;99.90
26342;DHT22;14054;50.108;8.640;2022-08-20T11:09:03;29.50;99.90
26342;DHT22;14054;50.108;8.640;2022-08-20T11:11:28;28.40;99.90
26342;DHT22;14054;50.108;8.640;2022-08-20T11:13:54;28.10;99.90
26342;DHT22;14054;50.108;8.640;2022-08-20T11:16:19;27.40;99.90
26342;DHT22;14054;50.108;8.640;2022-08-20T11:18:45;27.60;99.90
26342;DHT22;14054;50.108;8.640;2022-08-20T11:21:11;27.30;99.90
26342;DHT22;14054;50.108;8.640;2022-08-20T11:23:36;26.70;99.90
26342;DHT22;14054;50.108;8.640;2022-08-20T11:26:02;27.10;99.90
26342;DHT22;14054;50.108;8.640;2022-08-20T11:28:28;27.90;99.90
26342;DHT22;14054;50.108;8.640;2022-08-20T11:30:55;28.20;99.90
26342;DHT22;14054;50.108;8.640;2022-08-20T11:33:21;29.00;95.50
26342;DHT22;14054;50.108;8.640;2022-08-20T11:35:46;29.50;94.60
26342;DHT22;14054;50.108;8.640;2022-08-20T11:40:38;34.20;81.70
26342;DHT22;14054;50.108;8.640;2022-08-20T11:43:03;34.90;78.90
26342;DHT22;14054;50.108;8.640;2022-08-20T11:45:29;35.60;72.70
26342;DHT22;14054;50.108;8.640;2022-08-20T11:47:54;36.30;66.70
26342;DHT22;14054;50.108;8.640;2022-08-20T11:50:20;36.20;66.40
26342;DHT22;14054;50.108;8.640;2022-08-20T11:57:44;35.70;61.90
26342;DHT22;14054;50.108;8.640;2022-08-20T12:00:14;34.70;66.60
26342;DHT22;14054;50.108;8.640;2022-08-20T12:02:40;32.20;65.80
26342;DHT22;14054;50.108;8.640;2022-08-20T12:05:07;32.30;78.20
26342;DHT22;14054;50.108;8.640;2022-08-20T12:07:33;30.90;70.40
26342;DHT22;14054;50.108;8.640;2022-08-20T12:09:58;29.70;74.60
26342;DHT22;14054;50.108;8.640;2022-08-20T12:12:26;28.80;94.60
26342;DHT22;14054;50.108;8.640;2022-08-20T12:14:53;28.80;93.80
26342;DHT22;14054;50.108;8.640;2022-08-20T12:17:25;29.00;92.00
26342;DHT22;14054;50.108;8.640;2022-08-20T12:19:52;28.90;90.50
26342;DHT22;14054;50.108;8.640;2022-08-20T12:22:18;29.00;87.00
26342;DHT22;14054;50.108;8.640;2022-08-20T12:24:45;29.20;85.80
26342;DHT22;14054;50.108;8.640;2022-08-20T12:27:20;28.90;87.20
26342;DHT22;14054;50.108;8.640;2022-08-20T12:29:52;28.50;77.60
26342;DHT22;14054;50.108;8.640;2022-08-20T12:32:19;28.40;78.30
26342;DHT22;14054;50.108;8.640;2022-08-20T12:34:45;28.90;76.80
26342;DHT22;14054;50.108;8.640;2022-08-20T12:37:14;29.70;77.10
26342;DHT22;14054;50.108;8.640;2022-08-20T12:39:43;31.70;80.70
26342;DHT22;14054;50.108;8.640;2022-08-20T12:42:10;32.80;78.20
26342;DHT22;14054;50.108;8.640;2022-08-20T12:44:37;33.30;64.50
26342;DHT22;14054;50.108;8.640;2022-08-20T12:47:22;31.50;66.90
26342;DHT22;14054;50.108;8.640;2022-08-20T12:49:52;30.60;69.00
26342;DHT22;14054;50.108;8.640;2022-08-20T12:52:19;30.20;71.30
26342;DHT22;14054;50.108;8.640;2022-08-20T12:54:45;30.10;71.00
26342;DHT22;14054;50.108;8.640;2022-08-20T12:57:17;29.30;73.10
26342;DHT22;14054;50.108;8.640;2022-08-20T12:59:46;29.30;74.20
26342;DHT22;14054;50.108;8.640;2022-08-20T13:02:13;29.20;73.60
26342;DHT22;14054;50.108;8.640;2022-08-20T13:07:04;32.90;63.10
26342;DHT22;14054;50.108;8.640;2022-08-20T13:09:30;31.50;63.10
26342;DHT22;14054;50.108;8.640;2022-08-20T13:11:55;30.30;66.60
26342;DHT22;14054;50.108;8.640;2022-08-20T13:14:21;30.00;68.40
26342;DHT22;14054;50.108;8.640;2022-08-20T13:16:53;30.40;64.20
26342;DHT22;14054;50.108;8.640;2022-08-20T13:19:19;29.90;65.90
26342;DHT22;14054;50.108;8.640;2022-08-20T13:26:37;29.00;67.70
26342;DHT22;14054;50.108;8.640;2022-08-20T13:29:02;30.80;66.00
26342;DHT22;14054;50.108;8.640;2022-08-20T13:31:28;33.70;86.90
26342;DHT22;14054;50.108;8.640;2022-08-20T13:33:53;33.10;76.20
26342;DHT22;14054;50.108;8.640;2022-08-20T13:36:19;31.50;71.50
26342;DHT22;14054;50.108;8.640;2022-08-20T13:38:44;30.60;62.90
26342;DHT22;14054;50.108;8.640;2022-08-20T13:41:10;30.30;64.40
26342;DHT22;14054;50.108;8.640;2022-08-20T13:43:35;30.80;63.00
26342;DHT22;14054;50.108;8.640;2022-08-20T13:46:01;30.40;63.00
26342;DHT22;14054;50.108;8.640;2022-08-20T13:48:26;29.80;64.70
26342;DHT22;14054;50.108;8.640;2022-08-20T13:50:52;29.20;66.20
26342;DHT22;14054;50.108;8.640;2022-08-20T13:53:17;29.70;79.60
26342;DHT22;14054;50.108;8.640;2022-08-20T13:55:43;28.50;68.20
26342;DHT22;14054;50.108;8.640;2022-08-20T13:58:09;28.40;83.40
26342;DHT22;14054;50.108;8.640;2022-08-20T14:00:35;28.30;90.10
26342;DHT22;14054;50.108;8.640;2022-08-20T14:03:02;28.50;89.50
26342;DHT22;14054;50.108;8.640;2022-08-20T14:05:28;29.40;87.90
26342;DHT22;14054;50.108;8.640;2022-08-20T14:12:49;34.30;53.80
26342;DHT22;14054;50.108;8.640;2022-08-20T14:15:16;32.80;55.50
26342;DHT22;14054;50.108;8.640;2022-08-20T14:17:48;31.70;57.60
26342;DHT22;14054;50.108;8.640;2022-08-20T14:20:17;30.50;60.60
26342;DHT22;14054;50.108;8.640;2022-08-20T14:22:44;29.80;62.10
26342;DHT22;14054;50.108;8.640;2022-08-20T14:27:37;32.80;54.90
26342;DHT22;14054;50.108;8.640;2022-08-20T14:30:06;33.90;52.90
26342;DHT22;14054;50.108;8.640;2022-08-20T14:32:32;32.60;53.60
26342;DHT22;14054;50.108;8.640;2022-08-20T14:34:57;32.10;54.80
26342;DHT22;14054;50.108;8.640;2022-08-20T14:37:31;31.80;55.30
26342;DHT22;14054;50.108;8.640;2022-08-20T14:39:59;31.20;55.20
26342;DHT22;14054;50.108;8.640;2022-08-20T14:42:27;30.60;56.30
26342;DHT22;14054;50.108;8.640;2022-08-20T14:44:54;30.70;84.70
26342;DHT22;14054;50.108;8.640;2022-08-20T14:47:25;30.70;68.00
26342;DHT22;14054;50.108;8.640;2022-08-20T14:49:54;30.60;90.60
26342;DHT22;14054;50.108;8.640;2022-08-20T14:52:21;30.20;64.40
26342;DHT22;14054;50.108;8.640;2022-08-20T14:54:48;30.10;67.50
26342;DHT22;14054;50.108;8.640;2022-08-20T14:57:15;30.20;58.30
26342;DHT22;14054;50.108;8.640;2022-08-20T14:59:41;29.70;58.40
26342;DHT22;14054;50.108;8.640;2022-08-20T15:02:09;29.70;58.00
26342;DHT22;14054;50.108;8.640;2022-08-20T15:04:35;29.80;57.90
26342;DHT22;14054;50.108;8.640;2022-08-20T15:07:03;29.70;58.80
26342;DHT22;14054;50.108;8.640;2022-08-20T15:09:30;29.50;58.70
26342;DHT22;14054;50.108;8.640;2022-08-20T15:11:56;29.40;58.90
26342;DHT22;14054;50.108;8.640;2022-08-20T15:14:22;29.30;59.20
26342;DHT22;14054;50.108;8.640;2022-08-20T15:16:47;29.20;59.60
26342;DHT22;14054;50.108;8.640;2022-08-20T15:19:13;29.20;61.50
26342;DHT22;14054;50.108;8.640;2022-08-20T15:21:39;29.00;60.80
26342;DHT22;14054;50.108;8.640;2022-08-20T15:24:04;28.90;60.60
26342;DHT22;14054;50.108;8.640;2022-08-20T15:26:30;28.90;61.40
26342;DHT22;14054;50.108;8.640;2022-08-20T15:28:55;28.60;62.10
26342;DHT22;14054;50.108;8.640;2022-08-20T15:31:21;28.50;61.70
26342;DHT22;14054;50.108;8.640;2022-08-20T15:33:46;28.60;62.00
26342;DHT22;14054;50.108;8.640;2022-08-20T15:36:12;28.50;62.20
26342;DHT22;14054;50.108;8.640;2022-08-20T15:38:38;28.40;63.10
26342;DHT22;14054;50.108;8.640;2022-08-20T15:41:04;28.30;64.10
26342;DHT22;14054;50.108;8.640;2022-08-20T15:43:30;28.20;65.50
26342;DHT22;14054;50.108;8.640;2022-08-20T15:45:57;28.00;65.00
26342;DHT22;14054;50.108;8.640;2022-08-20T15:48:32;28.00;65.80
26342;DHT22;14054;50.108;8.640;2022-08-20T15:53:56;28.00;65.60
26342;DHT22;14054;50.108;8.640;2022-08-20T15:59:24;27.80;65.60
26342;DHT22;14054;50.108;8.640;2022-08-20T16:07:53;27.50;65.70
26342;DHT22;14054;50.108;8.640;2022-08-20T16:10:31;27.40;65.10
26342;DHT22;14054;50.108;8.640;2022-08-20T16:13:02;27.40;65.20
26342;DHT22;14054;50.108;8.640;2022-08-20T16:15:33;27.40;64.80
26342;DHT22;14054;50.108;8.640;2022-08-20T16:18:11;27.30;65.10